Time;durP1;ratioP1;P1;durP2;ratioP2;P2;SDS_P1;SDS_P2;PMS_P1;PMS_P2;Temp;Humidity;BMP_temperature;BMP_pressure;BME280_temperature;BME280_humidity;BME280_pressure;Samples;Min_cycle;Max_cycle;Signal;HPM_P1;HPM_P2
2021/11/11 00:00:23;;;;;;;;;;;;;;;2.26;87.31;97497.59;30001;983;1875;-64
2021/11/11 00:00:54;;;;;;;;;;;;;;;2.28;87.63;97495.50;30001;986;1875;-64
2021/11/11 00:01:25;;;;;;;;;;;;;;;2.29;87.80;97505.16;30001;983;1875;-62
2021/11/11 00:01:55;;;;;;;;;;;;;;;2.30;87.69;97503.31;30001;983;1875;-64
2021/11/11 00:02:27;;;;;;;;;;;;;;;2.29;87.61;97504.34;30001;983;1876;-63
2021/11/11 00:02:59;;;;;;;;;;;;;;;2.29;87.71;97507.03;30001;983;1876;-65
2021/11/11 00:03:30;;;;;;;;;;;;;;;2.28;87.45;97514.25;30001;983;1876;-65
2021/11/11 00:04:01;;;;;;;;;;;;;;;2.28;87.62;97511.56;30001;983;1858;-64
2021/11/11 00:04:32;;;;;;;;;;;;;;;2.29;87.48;97507.84;30001;983;1871;-64
2021/11/11 00:05:04;;;;;;;;;;;;;;;2.31;87.54;97510.31;30001;982;1876;-64
2021/11/11 00:05:35;;;;;;;;;;;;;;;2.32;87.32;97512.75;30001;982;1876;-63
2021/11/11 00:06:06;;;;;;;;;;;;;;;2.34;87.53;97507.19;30001;982;1876;-63
2021/11/11 00:06:38;;;;;;;;;;;;;;;2.35;87.03;97506.13;30001;982;1876;-63
2021/11/11 00:07:11;;;;;;;;;;;;;;;2.34;87.22;97508.00;30001;983;1875;-63
2021/11/11 00:07:42;;;;;;;;;;;;;;;2.35;87.15;97500.78;30001;983;1875;-62
2021/11/11 00:08:12;;;;;;;;;;;;;;;2.33;87.01;97508.22;30001;983;1875;-63
2021/11/11 00:08:44;;;;;;;;;;;;;;;2.32;87.33;97506.59;30001;983;1875;-62
2021/11/11 00:09:15;;;;;;;;;;;;;;;2.30;87.25;97501.44;30001;983;1858;-64
2021/11/11 00:09:46;;;;;;;;;;;;;;;2.30;87.28;97504.12;30001;983;1871;-63
2021/11/11 00:10:18;;;;;;;;;;;;;;;2.30;87.25;97511.34;30001;985;1872;-64
2021/11/11 00:10:49;;;;;;;;;;;;;;;2.29;87.24;97507.84;30001;983;1876;-63
2021/11/11 00:11:20;;;;;;;;;;;;;;;2.30;87.27;97509.50;30001;983;1876;-64
2021/11/11 00:11:51;;;;;;;;;;;;;;;2.32;87.15;97506.59;30001;983;1858;-62
2021/11/11 00:12:22;;;;;;;;;;;;;;;2.33;87.19;97505.53;30001;982;1871;-63
2021/11/11 00:12:54;;;;;;;;;;;;;;;2.34;87.20;97504.50;30001;982;1876;-63
2021/11/11 00:13:25;;;;;;;;;;;;;;;2.34;86.81;97499.16;30001;982;1876;-63
2021/11/11 00:13:56;;;;;;;;;;;;;;;2.34;86.81;97491.09;30001;982;1876;-63
2021/11/11 00:14:27;;;;;;;;;;;;;;;2.33;86.99;97492.97;30001;982;1876;-56
2021/11/11 00:15:02;;;;;;;;;;;;;;;2.33;87.12;97486.78;30001;983;1875;-64
2021/11/11 00:15:33;;;;;;;;;;;;;;;2.33;87.12;97492.97;30001;983;1875;-66
2021/11/11 00:16:04;;;;;;;;;;;;;;;2.34;87.20;97488.44;30001;983;1875;-64
2021/11/11 00:16:35;;;;;;;;;;;;;;;2.34;87.28;97485.75;30001;983;1875;-56
2021/11/11 00:17:07;;;;;;;;;;;;;;;2.34;87.21;97491.09;30001;983;1858;-66
2021/11/11 00:17:38;;;;;;;;;;;;;;;2.34;87.19;97488.44;30001;983;1871;-64
2021/11/11 00:18:12;;;;;;;;;;;;;;;2.34;87.29;97491.09;30001;983;1875;-63
2021/11/11 00:18:43;;;;;;;;;;;;;;;2.33;87.23;97498.31;30001;983;1876;-63
2021/11/11 00:19:15;;;;;;;;;;;;;;;2.33;87.37;97492.97;30001;983;1876;-63
2021/11/11 00:19:46;;;;;;;;;;;;;;;2.33;87.40;97492.16;30001;982;1876;-64
2021/11/11 00:20:19;;;;;;;;;;;;;;;2.34;87.27;97496.47;30001;982;1876;-62
2021/11/11 00:20:50;;;;;;;;;;;;;;;2.34;87.35;97499.16;30001;982;1876;-56
2021/11/11 00:21:21;;;;;;;;;;;;;;;2.34;87.33;97499.97;30001;982;1876;-63
2021/11/11 00:21:52;;;;;;;;;;;;;;;2.35;87.21;97495.44;30001;982;1876;-64
2021/11/11 00:22:24;;;;;;;;;;;;;;;2.35;87.13;97501.59;30001;983;1858;-65
2021/11/11 00:22:55;;;;;;;;;;;;;;;2.36;87.16;97502.41;30001;983;1871;-63
2021/11/11 00:23:26;;;;;;;;;;;;;;;2.35;87.05;97495.44;30001;983;1875;-64
2021/11/11 00:23:57;;;;;;;;;;;;;;;2.37;87.18;97495.19;30001;983;1858;-63
2021/11/11 00:24:28;;;;;;;;;;;;;;;2.37;87.16;97493.34;30001;983;1871;-63
2021/11/11 00:24:59;;;;;;;;;;;;;;;2.39;87.17;97493.94;30001;983;1876;-56
2021/11/11 00:25:30;;;;;;;;;;;;;;;2.41;87.09;97497.22;30001;983;1876;-65
2021/11/11 00:26:01;;;;;;;;;;;;;;;2.41;87.09;97494.53;30001;983;1858;-62
2021/11/11 00:26:33;;;;;;;;;;;;;;;2.43;87.08;97487.06;30001;982;1871;-63
2021/11/11 00:27:04;;;;;;;;;;;;;;;2.44;86.86;97483.34;30001;982;1876;-63
2021/11/11 00:27:37;;;;;;;;;;;;;;;2.44;87.04;97488.69;30001;982;1876;-65
2021/11/11 00:28:08;;;;;;;;;;;;;;;2.42;87.08;97482.78;30001;982;1876;-65
2021/11/11 00:28:39;;;;;;;;;;;;;;;2.40;87.16;97487.53;30001;982;1858;-64
2021/11/11 00:29:10;;;;;;;;;;;;;;;2.38;87.56;97478.09;30001;982;1872;-64
2021/11/11 00:29:41;;;;;;;;;;;;;;;2.33;87.91;97484.13;30001;982;1876;-64
2021/11/11 00:30:14;;;;;;;;;;;;;;;2.29;87.81;97481.06;30001;963;1895;-65
2021/11/11 00:30:45;;;;;;;;;;;;;;;2.26;88.17;97475.34;30001;983;1875;-63
2021/11/11 00:31:16;;;;;;;;;;;;;;;2.24;88.18;97488.16;30001;983;1858;-65
2021/11/11 00:31:47;;;;;;;;;;;;;;;2.24;88.21;97483.59;30001;983;1871;-56
2021/11/11 00:32:17;;;;;;;;;;;;;;;2.24;87.98;97478.25;30001;983;1875;-65
2021/11/11 00:32:50;;;;;;;;;;;;;;;2.26;88.02;97480.72;30001;983;1876;-63
2021/11/11 00:33:21;;;;;;;;;;;;;;;2.28;87.98;97474.09;30001;983;1876;-64
2021/11/11 00:33:52;;;;;;;;;;;;;;;2.29;88.07;97480.25;30001;983;1876;-64
2021/11/11 00:34:23;;;;;;;;;;;;;;;2.30;87.88;97476.53;30001;982;1875;-64
2021/11/11 00:34:54;;;;;;;;;;;;;;;2.30;87.89;97474.69;30001;982;1876;-63
2021/11/11 00:35:26;;;;;;;;;;;;;;;2.31;87.68;97470.13;30001;982;1876;-65
2021/11/11 00:35:57;;;;;;;;;;;;;;;2.29;87.75;97481.06;30001;982;1876;-65
2021/11/11 00:36:28;;;;;;;;;;;;;;;2.28;87.71;97467.91;30001;982;1859;-62
2021/11/11 00:37:00;;;;;;;;;;;;;;;2.27;87.80;97471.63;30001;982;1872;-64
2021/11/11 00:37:30;;;;;;;;;;;;;;;2.27;87.66;97471.63;30001;983;1876;-57
2021/11/11 00:38:03;;;;;;;;;;;;;;;2.26;87.88;97472.66;30001;983;1875;-64
2021/11/11 00:38:34;;;;;;;;;;;;;;;2.25;87.79;97481.75;30001;983;1875;-64
2021/11/11 00:39:05;;;;;;;;;;;;;;;2.25;87.76;97479.06;30001;983;1875;-64
2021/11/11 00:39:36;;;;;;;;;;;;;;;2.25;87.71;97479.06;30001;983;1875;-65
2021/11/11 00:40:08;;;;;;;;;;;;;;;2.24;87.78;97478.25;30001;983;1876;-66
2021/11/11 00:40:39;;;;;;;;;;;;;;;2.24;87.73;97482.78;30001;983;1876;-64
2021/11/11 00:41:14;;;;;;;;;;;;;;;2.24;87.75;97478.25;30001;983;1876;-61
2021/11/11 00:41:45;;;;;;;;;;;;;;;2.26;88.02;97480.72;30001;982;1858;-65
2021/11/11 00:42:17;;;;;;;;;;;;;;;2.26;87.80;97483.38;30001;982;1871;-65
2021/11/11 00:42:48;;;;;;;;;;;;;;;2.27;87.73;97487.69;30001;982;1876;-65
2021/11/11 00:43:19;;;;;;;;;;;;;;;2.27;87.93;97479.66;30001;982;1876;-57
2021/11/11 00:43:50;;;;;;;;;;;;;;;2.26;87.80;97480.72;30001;982;1859;-65
2021/11/11 00:44:22;;;;;;;;;;;;;;;2.25;87.78;97484.41;30001;982;1872;-65
2021/11/11 00:44:53;;;;;;;;;;;;;;;2.25;87.77;97484.41;30001;983;1875;-56
2021/11/11 00:45:24;;;;;;;;;;;;;;;2.26;87.75;97480.72;30001;983;1875;-63
2021/11/11 00:45:55;;;;;;;;;;;;;;;2.26;87.81;97486.88;30001;983;1875;-63
2021/11/11 00:46:27;;;;;;;;;;;;;;;2.28;87.87;97490.16;30001;983;1875;-62
2021/11/11 00:46:59;;;;;;;;;;;;;;;2.27;87.71;97483.16;30001;983;1875;-64
2021/11/11 00:47:30;;;;;;;;;;;;;;;2.27;87.67;97488.50;30001;983;1876;-63
2021/11/11 00:48:01;;;;;;;;;;;;;;;2.29;87.46;97485.63;30001;983;1876;-62
2021/11/11 00:48:33;;;;;;;;;;;;;;;2.29;87.67;97490.97;30001;983;1876;-55
2021/11/11 00:49:06;;;;;;;;;;;;;;;2.30;87.62;97492.59;30001;982;1858;-65
2021/11/11 00:49:38;;;;;;;;;;;;;;;2.30;87.52;97492.59;30001;982;1871;-64
2021/11/11 00:50:09;;;;;;;;;;;;;;;2.29;87.65;97488.28;30001;982;1876;-65
2021/11/11 00:50:40;;;;;;;;;;;;;;;2.28;87.61;97494.69;30001;982;1876;-64
2021/11/11 00:51:11;;;;;;;;;;;;;;;2.27;87.59;97493.87;30001;982;1876;-65
2021/11/11 00:51:42;;;;;;;;;;;;;;;2.25;87.61;97495.13;30001;982;1876;-65
2021/11/11 00:52:15;;;;;;;;;;;;;;;2.24;87.89;97490.81;30001;982;1876;-65
2021/11/11 00:52:46;;;;;;;;;;;;;;;2.22;87.85;97490.22;30001;983;1876;-64
2021/11/11 00:53:17;;;;;;;;;;;;;;;2.21;87.80;97499.31;30001;983;1875;-62
2021/11/11 00:53:48;;;;;;;;;;;;;;;2.20;87.89;97497.66;30001;983;1875;-62
2021/11/11 00:54:18;;;;;;;;;;;;;;;2.19;88.14;97490.66;30001;983;1858;-63
2021/11/11 00:54:49;;;;;;;;;;;;;;;2.18;88.15;97494.41;30001;983;1871;-64
2021/11/11 00:55:20;;;;;;;;;;;;;;;2.18;88.04;97494.41;30001;983;1876;-63
2021/11/11 00:55:51;;;;;;;;;;;;;;;2.17;87.99;97500.78;30001;983;1876;-63
2021/11/11 00:56:22;;;;;;;;;;;;;;;2.18;87.92;97494.41;30001;983;1876;-65
2021/11/11 00:56:53;;;;;;;;;;;;;;;2.11;87.67;97493.66;30001;982;1876;-65
2021/11/11 00:57:24;;;;;;;;;;;;;;;2.06;87.94;97493.53;30001;982;1876;-63
2021/11/11 00:57:55;;;;;;;;;;;;;;;2.06;87.95;97493.53;30001;982;1876;-64
2021/11/11 00:58:26;;;;;;;;;;;;;;;2.07;88.03;97493.31;30001;982;1876;-64
2021/11/11 00:58:57;;;;;;;;;;;;;;;2.08;88.13;97491.44;30001;982;1876;-63
2021/11/11 00:59:28;;;;;;;;;;;;;;;2.07;88.09;97492.50;30001;983;1858;-65
2021/11/11 00:59:59;;;;;;;;;;;;;;;2.04;88.17;97487.56;30001;983;1871;-64
2021/11/11 01:00:30;;;;;;;;;;;;;;;2.03;88.28;97496.66;30001;983;1875;-64
2021/11/11 01:01:01;;;;;;;;;;;;;;;1.98;88.09;97490.09;30001;983;1875;-65
2021/11/11 01:01:32;;;;;;;;;;;;;;;1.97;88.07;97493.00;30001;983;1875;-63
2021/11/11 01:02:07;;;;;;;;;;;;;;;1.95;88.36;97492.41;30001;983;1876;-63
2021/11/11 01:02:39;;;;;;;;;;;;;;;1.93;88.53;97492.63;30001;983;1876;-63
2021/11/11 01:03:11;;;;;;;;;;;;;;;1.92;88.47;97493.66;30001;983;1876;-64
2021/11/11 01:03:42;;;;;;;;;;;;;;;1.91;88.54;97494.72;30001;983;1876;-63
2021/11/11 01:04:13;;;;;;;;;;;;;;;1.91;88.55;97493.87;30001;982;1876;-63
2021/11/11 01:04:44;;;;;;;;;;;;;;;1.92;88.75;97491.00;30001;982;1858;-64
2021/11/11 01:05:15;;;;;;;;;;;;;;;1.94;88.70;97494.25;30001;982;1872;-64
2021/11/11 01:05:46;;;;;;;;;;;;;;;1.97;88.70;97498.34;30001;982;1876;-63
2021/11/11 01:06:17;;;;;;;;;;;;;;;1.99;88.60;97497.09;30001;982;1876;-64
2021/11/11 01:06:49;;;;;;;;;;;;;;;2.03;88.45;97502.00;30001;983;1875;-64
2021/11/11 01:07:21;;;;;;;;;;;;;;;2.04;88.28;97498.28;30001;983;1875;-64
2021/11/11 01:07:52;;;;;;;;;;;;;;;2.07;88.04;97492.50;30001;983;1875;-62
2021/11/11 01:08:26;;;;;;;;;;;;;;;2.05;88.07;97495.38;30001;983;1875;-65
2021/11/11 01:08:57;;;;;;;;;;;;;;;2.06;87.89;97490.84;30001;983;1875;-63
2021/11/11 01:09:29;;;;;;;;;;;;;;;2.05;87.99;97489.22;30001;983;1876;-65
2021/11/11 01:10:00;;;;;;;;;;;;;;;2.03;88.12;97489.44;30001;983;1858;-63
2021/11/11 01:10:32;;;;;;;;;;;;;;;2.04;88.04;97492.94;30001;983;1871;-63
2021/11/11 01:11:05;;;;;;;;;;;;;;;2.03;88.02;97491.28;30001;983;1876;-66
2021/11/11 01:11:36;;;;;;;;;;;;;;;2.03;88.13;97491.28;30001;983;1876;-63
2021/11/11 01:12:08;;;;;;;;;;;;;;;2.00;88.26;97488.03;30001;982;1858;-63
2021/11/11 01:12:39;;;;;;;;;;;;;;;2.00;88.18;97493.37;30001;982;1872;-63
2021/11/11 01:13:10;;;;;;;;;;;;;;;1.98;88.20;97484.75;30001;982;1876;-63
2021/11/11 01:13:42;;;;;;;;;;;;;;;1.95;88.52;97489.72;30001;982;1876;-65
2021/11/11 01:14:13;;;;;;;;;;;;;;;1.95;88.27;97485.19;30001;982;1876;-62
2021/11/11 01:14:43;;;;;;;;;;;;;;;1.95;88.31;97485.19;30001;983;1875;-64
2021/11/11 01:15:17;;;;;;;;;;;;;;;1.97;88.43;97487.66;30001;983;1858;-63
2021/11/11 01:15:48;;;;;;;;;;;;;;;1.97;88.50;97477.75;30001;983;1871;-63
2021/11/11 01:16:19;;;;;;;;;;;;;;;1.98;88.32;97484.75;30001;983;1875;-64
2021/11/11 01:16:52;;;;;;;;;;;;;;;1.97;88.31;97488.47;30001;983;1875;-64
2021/11/11 01:17:23;;;;;;;;;;;;;;;1.98;88.24;97486.63;30001;983;1876;-64
2021/11/11 01:17:54;;;;;;;;;;;;;;;1.98;88.27;97481.25;30001;983;1876;-64
2021/11/11 01:18:25;;;;;;;;;;;;;;;1.98;88.40;97484.75;30001;983;1876;-65
2021/11/11 01:18:56;;;;;;;;;;;;;;;1.98;88.26;97483.94;30001;983;1876;-64
2021/11/11 01:19:27;;;;;;;;;;;;;;;1.97;88.30;97483.13;30001;982;1876;-63
2021/11/11 01:19:58;;;;;;;;;;;;;;;1.98;88.35;97474.03;30001;982;1876;-65
2021/11/11 01:20:29;;;;;;;;;;;;;;;1.99;88.22;97481.03;30001;982;1858;-64
2021/11/11 01:21:00;;;;;;;;;;;;;;;2.00;88.22;97482.66;30001;982;1872;-64
2021/11/11 01:21:31;;;;;;;;;;;;;;;2.00;88.07;97482.66;30001;982;1876;-63
2021/11/11 01:22:03;;;;;;;;;;;;;;;2.02;88.26;97487.81;30001;965;1893;-63
2021/11/11 01:22:35;;;;;;;;;;;;;;;2.01;88.17;97478.97;30001;983;1875;-64
2021/11/11 01:23:06;;;;;;;;;;;;;;;2.02;88.24;97474.41;30001;983;1876;-63
2021/11/11 01:23:37;;;;;;;;;;;;;;;2.02;88.15;97474.41;30001;983;1876;-63
2021/11/11 01:24:08;;;;;;;;;;;;;;;2.03;88.27;97469.87;30001;983;1875;-64
2021/11/11 01:24:38;;;;;;;;;;;;;;;2.04;88.19;97476.88;30001;983;1876;-64
2021/11/11 01:25:13;;;;;;;;;;;;;;;2.05;88.14;97473.16;30001;983;1876;-64
2021/11/11 01:25:44;;;;;;;;;;;;;;;2.04;88.20;97472.34;30001;983;1858;-65
2021/11/11 01:26:15;;;;;;;;;;;;;;;2.04;88.15;97476.88;30001;982;1871;-63
2021/11/11 01:26:46;;;;;;;;;;;;;;;2.03;87.98;97476.06;30001;982;1876;-63
2021/11/11 01:27:17;;;;;;;;;;;;;;;2.04;88.04;97471.53;30001;982;1876;-63
2021/11/11 01:27:48;;;;;;;;;;;;;;;2.04;88.13;97468.84;30001;982;1876;-63
2021/11/11 01:28:19;;;;;;;;;;;;;;;2.04;88.12;97471.53;30001;982;1876;-65
2021/11/11 01:28:50;;;;;;;;;;;;;;;2.03;88.26;97467.22;30001;982;1876;-63
2021/11/11 01:29:21;;;;;;;;;;;;;;;2.04;88.10;97474.19;30001;983;1875;-64
2021/11/11 01:29:52;;;;;;;;;;;;;;;2.04;88.08;97466.16;30001;983;1875;-64
2021/11/11 01:30:23;;;;;;;;;;;;;;;2.03;88.12;97467.22;30001;983;1875;-63
2021/11/11 01:30:57;;;;;;;;;;;;;;;2.04;88.17;97472.34;30001;983;1858;-63
2021/11/11 01:31:28;;;;;;;;;;;;;;;2.04;88.07;97471.53;30001;983;1871;-65
2021/11/11 01:31:59;;;;;;;;;;;;;;;2.05;88.16;97475.84;30001;983;1876;-63
2021/11/11 01:32:30;;;;;;;;;;;;;;;2.05;88.16;97467.81;30001;983;1876;-63
2021/11/11 01:33:01;;;;;;;;;;;;;;;2.04;88.11;97466.97;30001;983;1876;-62
2021/11/11 01:33:32;;;;;;;;;;;;;;;2.05;88.17;97473.16;30001;982;1858;-63
2021/11/11 01:34:03;;;;;;;;;;;;;;;2.06;88.18;97469.44;30001;982;1871;-65
2021/11/11 01:34:35;;;;;;;;;;;;;;;2.06;88.20;97474.78;30001;982;1858;-65
2021/11/11 01:35:08;;;;;;;;;;;;;;;2.08;88.49;97468.16;30001;982;1871;-63
2021/11/11 01:35:38;;;;;;;;;;;;;;;2.08;88.25;97464.69;30001;982;1876;-65
2021/11/11 01:36:09;;;;;;;;;;;;;;;2.08;88.14;97468.16;30001;982;1876;-63
2021/11/11 01:36:40;;;;;;;;;;;;;;;2.06;88.53;97474.78;30001;982;1876;-56
2021/11/11 01:37:11;;;;;;;;;;;;;;;2.01;88.53;97473.59;30001;983;1875;-64
2021/11/11 01:37:44;;;;;;;;;;;;;;;1.97;88.75;97472.41;30001;983;1875;-65
2021/11/11 01:38:17;;;;;;;;;;;;;;;1.95;88.82;97474.50;30001;983;1875;-64
2021/11/11 01:38:48;;;;;;;;;;;;;;;1.95;88.62;97479.84;30001;983;1875;-64
2021/11/11 01:39:19;;;;;;;;;;;;;;;1.95;88.82;97485.19;30001;983;1858;-63
2021/11/11 01:39:50;;;;;;;;;;;;;;;1.96;88.67;97484.16;30001;962;1789;-65
2021/11/11 01:40:21;;;;;;;;;;;;;;;1.99;88.71;97477.53;30001;983;1876;-64
2021/11/11 01:40:53;;;;;;;;;;;;;;;2.01;88.60;97476.28;30001;983;1876;-64
2021/11/11 01:41:23;;;;;;;;;;;;;;;2.04;88.77;97476.88;30001;982;1876;-63
2021/11/11 01:41:54;;;;;;;;;;;;;;;2.04;88.50;97480.38;30001;982;1876;-64
2021/11/11 01:42:25;;;;;;;;;;;;;;;2.05;88.74;97481.19;30001;982;1876;-62
2021/11/11 01:42:58;;;;;;;;;;;;;;;2.04;88.58;97476.88;30001;961;1795;-65
2021/11/11 01:43:29;;;;;;;;;;;;;;;2.05;88.44;97483.88;30001;982;1876;-65
2021/11/11 01:44:00;;;;;;;;;;;;;;;2.05;88.56;97478.50;30001;982;1859;-65
2021/11/11 01:44:31;;;;;;;;;;;;;;;2.06;88.53;97480.16;30001;983;1871;-65
2021/11/11 01:45:02;;;;;;;;;;;;;;;2.06;88.54;97480.97;30001;983;1875;-64
2021/11/11 01:45:34;;;;;;;;;;;;;;;2.06;88.52;97483.63;30001;983;1875;-63
2021/11/11 01:46:05;;;;;;;;;;;;;;;2.08;88.54;97478.06;30001;972;1894;-65
2021/11/11 01:46:36;;;;;;;;;;;;;;;2.09;88.44;97479.66;30001;983;1875;-64
2021/11/11 01:47:07;;;;;;;;;;;;;;;2.10;88.51;97481.31;30001;983;1876;-64
2021/11/11 01:47:39;;;;;;;;;;;;;;;2.10;88.31;97479.44;30001;983;1876;-64
2021/11/11 01:48:12;;;;;;;;;;;;;;;2.11;88.22;97481.09;30001;983;1876;-62
2021/11/11 01:48:43;;;;;;;;;;;;;;;2.12;88.15;97482.72;30001;982;1876;-65
2021/11/11 01:49:15;;;;;;;;;;;;;;;2.13;88.18;97476.31;30001;982;1858;-65
2021/11/11 01:49:46;;;;;;;;;;;;;;;2.14;87.91;97477.13;30001;982;1871;-64
2021/11/11 01:50:16;;;;;;;;;;;;;;;2.15;88.01;97479.59;30001;982;1876;-65
2021/11/11 01:50:47;;;;;;;;;;;;;;;2.15;87.87;97484.13;30001;982;1876;-64
2021/11/11 01:51:20;;;;;;;;;;;;;;;2.17;87.93;97482.03;30001;982;1876;-56
2021/11/11 01:51:52;;;;;;;;;;;;;;;2.18;87.94;97486.34;30001;982;1876;-65
2021/11/11 01:52:22;;;;;;;;;;;;;;;2.17;88.08;97482.03;30001;983;1875;-64
2021/11/11 01:52:53;;;;;;;;;;;;;;;2.18;88.04;97475.66;30001;983;1875;-63
2021/11/11 01:53:24;;;;;;;;;;;;;;;2.18;88.22;97476.47;30001;983;1875;-64
2021/11/11 01:53:58;;;;;;;;;;;;;;;2.19;88.13;97479.97;30001;983;1858;-63
2021/11/11 01:54:29;;;;;;;;;;;;;;;2.19;88.12;97480.78;30001;983;1858;-65
2021/11/11 01:55:00;;;;;;;;;;;;;;;2.21;87.95;97477.87;30001;983;1880;-64
2021/11/11 01:55:31;;;;;;;;;;;;;;;2.23;87.84;97475.78;30001;983;1880;-65
2021/11/11 01:56:02;;;;;;;;;;;;;;;2.24;88.07;97477.44;30001;983;1880;-63
2021/11/11 01:56:34;;;;;;;;;;;;;;;2.24;87.96;97478.25;30001;982;1880;-63
2021/11/11 01:57:06;;;;;;;;;;;;;;;2.26;87.94;97475.34;30001;982;1880;-64
2021/11/11 01:57:37;;;;;;;;;;;;;;;2.26;87.96;97475.34;30001;982;1880;-65
2021/11/11 01:58:08;;;;;;;;;;;;;;;2.26;87.89;97476.16;30001;982;1880;-64
2021/11/11 01:58:39;;;;;;;;;;;;;;;2.26;87.84;97475.34;30001;982;1880;-64
2021/11/11 01:59:10;;;;;;;;;;;;;;;2.28;87.95;97468.72;30001;983;1862;-65
2021/11/11 01:59:42;;;;;;;;;;;;;;;2.30;87.89;97476.53;30001;983;1875;-65
2021/11/11 02:00:17;;;;;;;;;;;;;;;2.30;87.68;97465.81;30001;983;1880;-63
2021/11/11 02:00:53;;;;;;;;;;;;;;;2.31;87.69;97472.81;30001;983;1879;-64
2021/11/11 02:01:23;;;;;;;;;;;;;;;2.32;87.70;97463.75;30001;983;1880;-64
2021/11/11 02:01:55;;;;;;;;;;;;;;;2.35;87.80;97471.31;30001;983;1880;-65
2021/11/11 02:02:27;;;;;;;;;;;;;;;2.35;87.67;97465.97;30001;983;1880;-64
2021/11/11 02:03:02;;;;;;;;;;;;;;;2.35;87.74;97474.00;30001;983;1880;-64
2021/11/11 02:03:34;;;;;;;;;;;;;;;2.37;87.68;97471.91;30001;984;1854;-64
2021/11/11 02:04:05;;;;;;;;;;;;;;;2.37;87.62;97463.87;30001;982;1871;-64
2021/11/11 02:04:36;;;;;;;;;;;;;;;2.38;87.43;97470.06;30001;982;1876;-63
2021/11/11 02:05:08;;;;;;;;;;;;;;;2.37;87.34;97466.56;30001;982;1876;-65
2021/11/11 02:05:38;;;;;;;;;;;;;;;2.37;87.34;97466.56;30001;982;1876;-63
2021/11/11 02:06:10;;;;;;;;;;;;;;;2.38;87.42;97468.19;30001;982;1876;-64
2021/11/11 02:06:41;;;;;;;;;;;;;;;2.37;87.38;97466.56;30001;983;1875;-65
2021/11/11 02:07:12;;;;;;;;;;;;;;;2.37;87.36;97461.19;30001;983;1875;-64
2021/11/11 02:07:43;;;;;;;;;;;;;;;2.37;87.48;97458.53;30001;976;1893;-64
2021/11/11 02:08:14;;;;;;;;;;;;;;;2.38;87.50;97462.84;30001;983;1875;-64
2021/11/11 02:08:45;;;;;;;;;;;;;;;2.38;87.51;97456.66;30001;983;1858;-65
2021/11/11 02:09:16;;;;;;;;;;;;;;;2.40;87.34;97463.44;30001;983;1871;-64
2021/11/11 02:09:47;;;;;;;;;;;;;;;2.39;87.41;97459.12;30001;983;1858;-63
2021/11/11 02:10:19;;;;;;;;;;;;;;;2.41;87.52;97458.91;30001;983;1854;-64
2021/11/11 02:10:50;;;;;;;;;;;;;;;2.42;87.69;97456.00;30001;965;1897;-64
2021/11/11 02:11:22;;;;;;;;;;;;;;;2.42;87.39;97447.94;30001;982;1876;-65
2021/11/11 02:11:53;;;;;;;;;;;;;;;2.43;87.22;97441.53;30001;982;1876;-65
2021/11/11 02:12:24;;;;;;;;;;;;;;;2.45;87.17;97452.81;30001;982;1876;-63
2021/11/11 02:12:55;;;;;;;;;;;;;;;2.45;87.13;97447.47;30001;982;1876;-62
2021/11/11 02:13:26;;;;;;;;;;;;;;;2.46;87.14;97442.94;30001;982;1876;-63
2021/11/11 02:13:57;;;;;;;;;;;;;;;2.46;87.09;97443.75;30001;983;1875;-64
2021/11/11 02:14:28;;;;;;;;;;;;;;;2.47;87.08;97440.03;30001;983;1875;-63
2021/11/11 02:14:59;;;;;;;;;;;;;;;2.47;87.07;97439.22;30001;983;1858;-64
2021/11/11 02:15:30;;;;;;;;;;;;;;;2.49;87.04;97445.16;30001;983;1871;-66
2021/11/11 02:16:01;;;;;;;;;;;;;;;2.47;87.17;97434.66;30001;983;1875;-62
2021/11/11 02:16:34;;;;;;;;;;;;;;;2.49;87.18;97445.16;30001;983;1858;-65
2021/11/11 02:17:05;;;;;;;;;;;;;;;2.50;87.35;97438.75;30001;983;1871;-63
2021/11/11 02:17:36;;;;;;;;;;;;;;;2.50;87.34;97439.56;30001;983;1875;-64
2021/11/11 02:18:09;;;;;;;;;;;;;;;2.50;87.23;97444.94;30001;983;1876;-63
2021/11/11 02:18:39;;;;;;;;;;;;;;;2.51;87.22;97446.56;30001;983;1876;-55
2021/11/11 02:19:10;;;;;;;;;;;;;;;2.51;87.11;97441.22;30001;982;1876;-62
2021/11/11 02:19:42;;;;;;;;;;;;;;;2.52;87.14;97442.84;30001;982;1876;-63
2021/11/11 02:20:18;;;;;;;;;;;;;;;2.54;87.10;97447.97;30001;982;1858;-63
2021/11/11 02:20:49;;;;;;;;;;;;;;;2.54;86.93;97451.47;30001;982;1872;-63
2021/11/11 02:21:20;;;;;;;;;;;;;;;2.55;86.91;97447.75;30001;983;1875;-64
2021/11/11 02:21:54;;;;;;;;;;;;;;;2.54;87.18;97446.13;30001;983;1875;-55
2021/11/11 02:22:25;;;;;;;;;;;;;;;2.53;87.13;97439.13;30001;983;1875;-64
2021/11/11 02:22:57;;;;;;;;;;;;;;;2.54;86.80;97451.47;30001;983;1875;-63
2021/11/11 02:23:28;;;;;;;;;;;;;;;2.54;86.87;97439.94;30001;983;1875;-64
2021/11/11 02:23:59;;;;;;;;;;;;;;;2.54;87.00;97446.13;30001;983;1858;-63
2021/11/11 02:24:31;;;;;;;;;;;;;;;2.53;86.80;97441.81;30001;983;1871;-62
2021/11/11 02:25:07;;;;;;;;;;;;;;;2.54;87.10;97439.94;30001;983;1876;-61
2021/11/11 02:25:38;;;;;;;;;;;;;;;2.54;86.93;97450.66;30001;983;1876;-63
2021/11/11 02:26:10;;;;;;;;;;;;;;;2.54;87.14;97443.44;30001;983;1876;-62
2021/11/11 02:26:40;;;;;;;;;;;;;;;2.54;87.22;97445.28;30001;982;1876;-64
2021/11/11 02:27:11;;;;;;;;;;;;;;;2.53;87.11;97444.47;30001;982;1876;-63
2021/11/11 02:27:43;;;;;;;;;;;;;;;2.53;87.14;97440.97;30001;982;1876;-64
2021/11/11 02:28:15;;;;;;;;;;;;;;;2.53;87.12;97444.47;30001;982;1876;-62
2021/11/11 02:28:46;;;;;;;;;;;;;;;2.53;87.26;97440.97;30001;982;1859;-63
2021/11/11 02:29:17;;;;;;;;;;;;;;;2.53;87.29;97447.16;30001;983;1871;-63
2021/11/11 02:29:49;;;;;;;;;;;;;;;2.54;87.63;97450.66;30001;978;1890;-64
2021/11/11 02:30:21;;;;;;;;;;;;;;;2.55;87.54;97447.75;30001;983;1875;-63
2021/11/11 02:30:53;;;;;;;;;;;;;;;2.55;87.25;97450.44;30001;983;1875;-63
2021/11/11 02:31:24;;;;;;;;;;;;;;;2.55;87.29;97449.59;30001;983;1876;-63
2021/11/11 02:31:56;;;;;;;;;;;;;;;2.55;87.39;97447.75;30001;985;1876;-63
2021/11/11 02:32:28;;;;;;;;;;;;;;;2.55;87.64;97453.09;30001;983;1876;-64
2021/11/11 02:32:59;;;;;;;;;;;;;;;2.55;87.65;97452.28;30001;983;1858;-63
2021/11/11 02:33:30;;;;;;;;;;;;;;;2.54;87.81;97454.16;30001;982;1871;-64
2021/11/11 02:34:01;;;;;;;;;;;;;;;2.55;87.72;97453.09;30001;982;1876;-64
2021/11/11 02:34:32;;;;;;;;;;;;;;;2.56;87.94;97449.38;30001;982;1876;-64
2021/11/11 02:35:04;;;;;;;;;;;;;;;2.56;87.87;97459.28;30001;982;1876;-65
2021/11/11 02:35:36;;;;;;;;;;;;;;;2.57;87.87;97451.00;30001;982;1876;-64
2021/11/11 02:36:07;;;;;;;;;;;;;;;2.58;87.98;97451.84;30001;982;1876;-63
2021/11/11 02:36:58;;;;;;;;;;;;;;;2.57;87.97;97456.37;30001;983;1858;-64
2021/11/11 02:37:30;;;;;;;;;;;;;;;2.59;87.92;97454.28;30001;983;1871;-63
2021/11/11 02:38:01;;;;;;;;;;;;;;;2.59;87.94;97454.28;30001;983;1875;-62
2021/11/11 02:38:32;;;;;;;;;;;;;;;2.59;87.92;97448.94;30001;983;1875;-64
2021/11/11 02:39:03;;;;;;;;;;;;;;;2.60;87.89;97445.19;30001;983;1876;-63
2021/11/11 02:39:38;;;;;;;;;;;;;;;2.60;87.73;97447.87;30001;983;1876;-62
2021/11/11 02:40:11;;;;;;;;;;;;;;;2.60;87.61;97449.75;30001;983;1876;-64
2021/11/11 02:40:43;;;;;;;;;;;;;;;2.59;87.54;97446.25;30001;982;1876;-65
2021/11/11 02:41:14;;;;;;;;;;;;;;;2.59;87.33;97448.94;30001;982;1876;-65
2021/11/11 02:41:45;;;;;;;;;;;;;;;2.61;87.62;97452.19;30001;982;1858;-63
2021/11/11 02:42:17;;;;;;;;;;;;;;;2.61;87.37;97446.84;30001;982;1871;-64
2021/11/11 02:42:49;;;;;;;;;;;;;;;2.61;87.25;97444.16;30001;982;1876;-65
2021/11/11 02:43:20;;;;;;;;;;;;;;;2.59;86.97;97440.87;30001;982;1859;-63
2021/11/11 02:43:50;;;;;;;;;;;;;;;2.59;87.06;97435.53;30001;982;1872;-64
2021/11/11 02:44:21;;;;;;;;;;;;;;;2.61;86.92;97446.84;30001;983;1875;-64
2021/11/11 02:44:57;;;;;;;;;;;;;;;2.62;86.75;97442.28;30001;983;1875;-63
2021/11/11 02:45:30;;;;;;;;;;;;;;;2.61;86.76;97443.34;30001;983;1858;-63
2021/11/11 02:46:02;;;;;;;;;;;;;;;2.60;86.81;97444.38;30001;983;1871;-65
2021/11/11 02:46:33;;;;;;;;;;;;;;;2.60;86.43;97442.53;30001;983;1876;-63
2021/11/11 02:47:04;;;;;;;;;;;;;;;2.60;86.44;97445.19;30001;983;1876;-65
2021/11/11 02:47:35;;;;;;;;;;;;;;;2.59;86.46;97440.06;30001;983;1858;-64
2021/11/11 02:48:07;;;;;;;;;;;;;;;2.58;86.42;97441.94;30001;983;1871;-62
2021/11/11 02:48:38;;;;;;;;;;;;;;;2.57;86.32;97442.97;30001;982;1876;-65
2021/11/11 02:49:09;;;;;;;;;;;;;;;2.58;86.25;97443.78;30001;982;1876;-65
2021/11/11 02:49:40;;;;;;;;;;;;;;;2.56;86.17;97452.06;30001;982;1876;-64
2021/11/11 02:50:12;;;;;;;;;;;;;;;2.54;86.13;97443.44;30001;982;1876;-63
2021/11/11 02:50:43;;;;;;;;;;;;;;;2.53;86.01;97444.47;30001;982;1876;-64